Time;durP1;ratioP1;P1;durP2;ratioP2;P2;SDS_P1;SDS_P2;PMS_P1;PMS_P2;Temp;Humidity;BMP_temperature;BMP_pressure;BME280_temperature;BME280_humidity;BME280_pressure;Samples;Min_cycle;Max_cycle;Signal;HPM_P1;HPM_P2
2022/11/22 00:00:40;;;;;;;23.85;13.43;;;2.20;99.90;;;;;;5090665;28;20039;-64
2022/11/22 00:03:07;;;;;;;19.75;12.45;;;2.20;99.90;;;;;;5069351;28;20063;-64
2022/11/22 00:05:32;;;;;;;24.85;14.95;;;2.20;99.90;;;;;;5072146;28;20085;-64
2022/11/22 00:07:58;;;;;;;25.40;13.68;;;2.20;99.90;;;;;;5089849;28;20044;-64
2022/11/22 00:10:24;;;;;;;25.70;13.55;;;2.20;99.90;;;;;;5072680;28;20393;-64
2022/11/22 00:12:50;;;;;;;26.25;14.40;;;2.20;99.90;;;;;;5087866;28;20040;-64
2022/11/22 00:15:16;;;;;;;27.98;14.88;;;2.30;99.90;;;;;;5090276;28;20040;-64
2022/11/22 00:17:41;;;;;;;32.42;15.77;;;2.30;99.90;;;;;;5090156;28;20074;-64
2022/11/22 00:20:12;;;;;;;25.02;13.45;;;2.30;99.90;;;;;;5071371;28;20028;-64
2022/11/22 00:22:38;;;;;;;26.98;15.20;;;2.30;99.90;;;;;;5086640;28;20049;-64
2022/11/22 00:25:06;;;;;;;26.30;15.45;;;2.30;99.90;;;;;;5088797;28;20061;-64
2022/11/22 00:27:32;;;;;;;29.48;15.77;;;2.30;99.90;;;;;;5089717;28;20502;-64
2022/11/22 00:29:58;;;;;;;31.58;14.05;;;2.30;99.90;;;;;;5089059;28;20520;-64
2022/11/22 00:32:24;;;;;;;29.58;14.93;;;2.30;99.90;;;;;;5089087;28;20047;-64
2022/11/22 00:34:49;;;;;;;26.92;15.00;;;2.20;99.90;;;;;;5087835;28;20139;-64
2022/11/22 00:37:15;;;;;;;24.92;14.55;;;2.20;99.90;;;;;;5089075;28;20079;-64
2022/11/22 00:39:41;;;;;;;28.42;14.02;;;2.20;99.90;;;;;;5089650;28;20048;-63
2022/11/22 00:42:07;;;;;;;27.60;15.98;;;2.20;99.90;;;;;;5088842;28;20131;-64
2022/11/22 00:44:32;;;;;;;32.95;16.90;;;2.20;99.90;;;;;;5069626;28;20497;-64
2022/11/22 00:46:58;;;;;;;28.95;14.20;;;2.20;99.90;;;;;;5088927;28;20051;-63
2022/11/22 00:49:24;;;;;;;34.78;16.27;;;2.20;99.90;;;;;;5090023;28;20047;-63
2022/11/22 00:51:50;;;;;;;33.65;16.65;;;2.20;99.90;;;;;;5089256;28;20496;-63
2022/11/22 00:54:15;;;;;;;33.42;16.30;;;2.20;99.90;;;;;;5087753;28;20042;-64
2022/11/22 00:56:41;;;;;;;35.03;16.75;;;2.30;99.90;;;;;;5071141;28;20447;-64
2022/11/22 00:59:07;;;;;;;32.72;17.48;;;2.30;99.90;;;;;;5079487;28;20051;-64
2022/11/22 01:01:34;;;;;;;19.00;10.25;;;2.30;99.90;;;;;;5069057;28;20035;-64
2022/11/22 01:03:59;;;;;;;29.85;14.07;;;2.30;99.90;;;;;;5084562;28;20567;-63
2022/11/22 01:06:25;;;;;;;32.83;17.52;;;2.30;99.90;;;;;;5086866;28;20105;-64
2022/11/22 01:08:51;;;;;;;36.72;17.65;;;2.30;99.90;;;;;;5069807;28;20504;-61
2022/11/22 01:11:18;;;;;;;33.65;17.27;;;2.30;99.90;;;;;;5088958;28;20036;-64
2022/11/22 01:13:44;;;;;;;33.35;18.88;;;2.20;99.90;;;;;;5089300;28;20036;-64
2022/11/22 01:16:11;;;;;;;33.38;18.75;;;2.20;99.90;;;;;;5067174;28;20570;-64
2022/11/22 01:18:37;;;;;;;30.60;17.92;;;2.20;99.90;;;;;;5088820;28;20052;-64
2022/11/22 01:21:04;;;;;;;28.70;15.95;;;2.20;99.90;;;;;;5087661;28;20363;-63
2022/11/22 01:23:30;;;;;;;28.75;16.20;;;2.20;99.90;;;;;;5089376;28;20103;-64
2022/11/22 01:25:57;;;;;;;32.53;18.50;;;2.20;99.90;;;;;;5069164;28;20130;-63
2022/11/22 01:28:23;;;;;;;33.90;20.52;;;2.20;99.90;;;;;;5088842;28;20235;-63
2022/11/22 01:30:50;;;;;;;19.40;9.85;;;2.20;99.90;;;;;;5088581;28;20051;-63
2022/11/22 01:33:17;;;;;;;27.02;15.65;;;2.20;99.90;;;;;;5087724;28;20497;-63
2022/11/22 01:35:43;;;;;;;31.85;18.20;;;2.20;99.90;;;;;;5080760;28;20505;-64
2022/11/22 01:38:10;;;;;;;22.33;13.70;;;2.20;99.90;;;;;;5047086;28;20078;-64
2022/11/22 01:40:36;;;;;;;28.40;18.33;;;2.20;99.90;;;;;;5088882;28;20521;-63
2022/11/22 01:43:03;;;;;;;30.52;18.77;;;2.20;99.90;;;;;;5086675;28;20085;-63
2022/11/22 01:45:28;;;;;;;25.33;15.98;;;2.20;99.90;;;;;;5086684;28;20477;-63
2022/11/22 01:48:09;;;;;;;30.40;18.67;;;2.20;99.90;;;;;;5078583;28;20036;-63
2022/11/22 01:50:38;;;;;;;30.73;18.70;;;2.20;99.90;;;;;;5087834;28;20051;-63
2022/11/22 01:53:11;;;;;;;28.60;17.60;;;2.20;99.90;;;;;;5062346;28;20100;-64
2022/11/22 01:55:38;;;;;;;28.73;16.17;;;2.20;99.90;;;;;;5087297;28;20290;-63
2022/11/22 01:58:04;;;;;;;30.95;19.33;;;2.20;99.90;;;;;;5039272;28;20040;-64
2022/11/22 02:00:29;;;;;;;26.63;14.18;;;2.20;99.90;;;;;;5087710;28;20100;-63
2022/11/22 02:03:00;;;;;;;24.63;14.80;;;2.20;99.90;;;;;;5065528;28;20048;-63
2022/11/22 02:05:30;;;;;;;27.90;17.27;;;2.20;99.90;;;;;;5083508;28;20048;-63
2022/11/22 02:08:07;;;;;;;23.80;14.27;;;2.20;99.90;;;;;;5059606;28;20047;-63
2022/11/22 02:10:39;;;;;;;23.17;15.68;;;2.20;99.90;;;;;;5088052;28;20047;-63
2022/11/22 02:13:06;;;;;;;29.65;17.38;;;2.20;99.90;;;;;;5086528;28;20081;-63
2022/11/22 02:15:34;;;;;;;32.33;19.13;;;2.20;99.90;;;;;;5088352;28;20044;-63
2022/11/22 02:17:59;;;;;;;28.95;18.65;;;2.20;99.90;;;;;;5085168;28;20108;-63
2022/11/22 02:20:25;;;;;;;27.65;17.33;;;2.20;99.90;;;;;;5068862;28;20502;-63
2022/11/22 02:23:05;;;;;;;22.35;14.07;;;2.20;99.90;;;;;;5069300;28;20040;-63
2022/11/22 02:25:40;;;;;;;29.70;19.00;;;2.20;99.90;;;;;;5086728;28;20059;-63
2022/11/22 02:28:12;;;;;;;27.80;16.38;;;2.20;99.90;;;;;;5081315;28;20497;-63
2022/11/22 02:30:39;;;;;;;28.63;15.20;;;2.20;99.90;;;;;;5068772;28;20044;-63
2022/11/22 02:33:05;;;;;;;27.98;16.75;;;2.30;99.90;;;;;;5076914;28;20119;-63
2022/11/22 02:35:31;;;;;;;28.05;17.25;;;2.30;99.90;;;;;;5085739;28;20092;-63
2022/11/22 02:38:16;;;;;;;27.50;12.18;;;2.30;99.90;;;;;;5064415;28;20032;-63
2022/11/22 02:40:52;;;;;;;29.30;18.02;;;2.30;99.90;;;;;;5088364;28;20086;-63
2022/11/22 02:43:36;;;;;;;26.02;14.65;;;2.30;99.90;;;;;;5086313;28;20123;-63
2022/11/22 02:46:07;;;;;;;27.13;16.02;;;2.30;99.90;;;;;;5063228;28;20032;-63
2022/11/22 02:48:33;;;;;;;26.05;15.75;;;2.40;99.90;;;;;;5068546;28;20105;-63
2022/11/22 02:50:59;;;;;;;29.05;15.18;;;2.30;99.90;;;;;;5086342;28;20085;-63
2022/11/22 02:53:24;;;;;;;24.25;14.23;;;2.40;99.90;;;;;;5087393;28;20429;-63
2022/11/22 02:55:51;;;;;;;27.20;16.48;;;2.40;99.90;;;;;;5084187;28;20055;-63
2022/11/22 02:58:16;;;;;;;20.88;11.50;;;2.40;99.90;;;;;;5087657;28;20044;-63
2022/11/22 03:00:42;;;;;;;25.20;15.55;;;2.40;99.90;;;;;;5068184;28;20405;-63
2022/11/22 03:03:07;;;;;;;22.95;14.32;;;2.40;99.90;;;;;;5087186;28;20097;-64
2022/11/22 03:05:33;;;;;;;34.83;16.20;;;2.40;99.90;;;;;;5086847;28;20032;-64
2022/11/22 03:08:00;;;;;;;23.08;13.60;;;2.50;99.90;;;;;;5050289;28;20585;-64
2022/11/22 03:10:25;;;;;;;21.10;13.73;;;2.40;99.90;;;;;;5069042;28;20402;-64
2022/11/22 03:12:51;;;;;;;26.02;16.88;;;2.40;99.90;;;;;;5067803;28;20044;-64
2022/11/22 03:15:17;;;;;;;26.50;14.45;;;2.40;99.90;;;;;;5087594;28;20035;-64
2022/11/22 03:17:42;;;;;;;12.48;6.88;;;2.40;99.90;;;;;;5080920;28;20148;-64
2022/11/22 03:20:09;;;;;;;27.67;15.07;;;2.40;99.90;;;;;;5068502;28;20055;-64
2022/11/22 03:22:35;;;;;;;25.88;15.10;;;2.40;99.90;;;;;;5052740;28;20048;-64
2022/11/22 03:25:00;;;;;;;27.67;14.90;;;2.50;99.90;;;;;;5072932;28;20092;-64
2022/11/22 03:27:26;;;;;;;28.48;15.95;;;2.50;99.90;;;;;;5089728;28;20153;-64
2022/11/22 03:29:52;;;;;;;22.75;13.38;;;2.50;99.90;;;;;;5071415;28;20040;-64
2022/11/22 03:32:18;;;;;;;23.65;14.73;;;2.50;99.90;;;;;;5050350;28;20492;-64
2022/11/22 03:34:43;;;;;;;26.80;15.85;;;2.50;99.90;;;;;;5071787;28;20063;-64
2022/11/22 03:37:09;;;;;;;22.33;12.77;;;2.50;99.90;;;;;;5091182;28;20038;-64
2022/11/22 03:39:35;;;;;;;21.75;12.43;;;2.50;99.90;;;;;;5088953;28;20055;-64
2022/11/22 03:42:01;;;;;;;32.10;15.88;;;2.60;99.90;;;;;;5056277;28;20032;-64
2022/11/22 03:44:26;;;;;;;25.55;14.18;;;2.60;99.90;;;;;;5090485;28;20517;-64
2022/11/22 03:46:53;;;;;;;24.63;13.73;;;2.60;99.90;;;;;;5090354;28;20044;-64
2022/11/22 03:49:18;;;;;;;27.15;14.63;;;2.60;99.90;;;;;;5062842;28;20052;-64
2022/11/22 03:51:44;;;;;;;26.27;15.35;;;2.60;99.90;;;;;;5087524;28;20043;-64
2022/11/22 03:54:10;;;;;;;27.90;15.15;;;2.60;99.90;;;;;;5055667;28;20093;-64
2022/11/22 03:56:35;;;;;;;26.38;14.23;;;2.60;99.90;;;;;;5071303;28;20386;-64
2022/11/22 03:59:01;;;;;;;26.00;14.07;;;2.60;99.90;;;;;;5089118;28;20117;-64
2022/11/22 04:01:27;;;;;;;23.80;14.18;;;2.70;99.90;;;;;;5089524;28;20044;-65
2022/11/22 04:03:54;;;;;;;31.50;14.23;;;2.60;99.90;;;;;;5090358;28;20039;-64
2022/11/22 04:06:20;;;;;;;26.45;14.65;;;2.60;99.90;;;;;;5086135;28;20089;-64
2022/11/22 04:08:45;;;;;;;21.98;13.32;;;2.60;99.90;;;;;;5087190;28;20047;-64
2022/11/22 04:11:11;;;;;;;22.02;12.48;;;2.60;99.90;;;;;;5090052;28;20493;-64
2022/11/22 04:16:22;;;;;;;27.98;14.93;;;2.70;99.90;;;;;;5057335;28;20475;-64
2022/11/22 04:18:48;;;;;;;19.30;13.25;;;2.70;99.90;;;;;;5064037;28;20044;-63
2022/11/22 04:26:43;;;;;;;28.15;14.27;;;2.70;99.90;;;;;;5085490;28;20040;-64
2022/11/22 04:29:09;;;;;;;23.05;14.15;;;2.70;99.90;;;;;;5083722;28;20055;-64
2022/11/22 04:34:19;;;;;;;18.60;12.48;;;2.70;99.90;;;;;;5088737;28;20081;-64
2022/11/22 04:36:44;;;;;;;23.60;13.93;;;2.70;99.90;;;;;;5089389;28;20044;-64
2022/11/22 04:39:10;;;;;;;31.95;14.35;;;2.70;99.90;;;;;;5080470;28;20125;-64
2022/11/22 04:41:36;;;;;;;19.98;12.18;;;2.80;99.90;;;;;;5089838;28;20043;-64
2022/11/22 04:46:47;;;;;;;20.45;11.80;;;2.80;99.90;;;;;;5074577;28;20044;-64
2022/11/22 04:49:13;;;;;;;24.15;12.15;;;2.90;99.90;;;;;;5087264;28;20083;-64
2022/11/22 04:54:23;;;;;;;21.98;12.70;;;2.90;99.90;;;;;;5074374;28;20094;-64
2022/11/22 04:56:49;;;;;;;24.38;12.95;;;2.90;99.90;;;;;;5087904;28;20076;-65
2022/11/22 04:59:15;;;;;;;22.95;12.82;;;2.90;99.90;;;;;;5053354;28;20619;-65
2022/11/22 05:01:40;;;;;;;16.63;10.23;;;2.90;99.90;;;;;;5030903;28;20167;-65
2022/11/22 05:04:07;;;;;;;17.92;12.02;;;2.90;99.90;;;;;;5089231;28;20040;-65
2022/11/22 05:06:32;;;;;;;24.15;12.50;;;2.90;99.90;;;;;;5089370;28;20043;-64
2022/11/22 05:08:58;;;;;;;16.95;10.90;;;2.90;99.90;;;;;;5080520;28;20040;-64
2022/11/22 05:11:25;;;;;;;16.13;8.90;;;3.00;99.90;;;;;;5088929;28;20032;-64
2022/11/22 05:13:50;;;;;;;19.67;11.73;;;3.00;99.90;;;;;;5053384;28;20198;-63
2022/11/22 05:16:16;;;;;;;19.65;11.60;;;3.00;99.90;;;;;;5070767;28;20123;-63
2022/11/22 05:18:42;;;;;;;21.38;11.70;;;3.00;99.90;;;;;;5079958;28;20044;-63
2022/11/22 05:21:13;;;;;;;16.35;9.95;;;3.00;99.90;;;;;;5085847;28;20051;-64
2022/11/22 05:23:54;;;;;;;14.40;9.85;;;3.00;99.90;;;;;;5088657;28;20071;-64
2022/11/22 05:26:35;;;;;;;16.60;11.23;;;3.00;99.90;;;;;;5087637;28;20036;-65
2022/11/22 05:29:09;;;;;;;18.63;11.23;;;3.10;99.90;;;;;;5087849;28;20105;-64
2022/11/22 05:31:37;;;;;;;17.38;10.70;;;3.10;99.90;;;;;;5087315;28;20501;-64
2022/11/22 05:34:04;;;;;;;23.92;12.00;;;3.10;99.90;;;;;;5081543;28;20372;-65
2022/11/22 05:36:32;;;;;;;17.25;11.70;;;3.10;99.90;;;;;;5085800;28;20563;-64
2022/11/22 05:38:58;;;;;;;23.20;13.00;;;3.10;99.90;;;;;;5086758;28;20063;-64
2022/11/22 05:41:24;;;;;;;21.92;12.45;;;3.10;99.90;;;;;;5088401;28;20052;-63
2022/11/22 05:43:50;;;;;;;20.88;13.02;;;3.10;99.90;;;;;;5087730;28;20039;-65
2022/11/22 05:46:20;;;;;;;19.20;12.52;;;3.10;99.90;;;;;;5070384;28;20135;-64
2022/11/22 05:48:47;;;;;;;23.00;12.65;;;3.20;99.90;;;;;;5052975;28;20517;-64
2022/11/22 05:51:15;;;;;;;20.58;12.13;;;3.10;99.90;;;;;;5085628;28;20490;-64
2022/11/22 05:53:42;;;;;;;18.48;11.88;;;3.20;99.90;;;;;;5069868;28;20124;-64
2022/11/22 05:56:13;;;;;;;22.83;11.52;;;3.20;99.90;;;;;;5052159;28;20036;-65
2022/11/22 05:58:40;;;;;;;18.13;12.15;;;3.20;99.90;;;;;;5074444;28;20044;-64
2022/11/22 06:01:15;;;;;;;19.15;11.32;;;3.20;99.90;;;;;;5069217;28;20596;-64
2022/11/22 06:03:42;;;;;;;14.95;9.48;;;3.30;99.90;;;;;;5088522;28;20122;-64
2022/11/22 06:06:08;;;;;;;24.42;12.95;;;3.30;99.90;;;;;;5085622;28;20119;-64
2022/11/22 06:08:36;;;;;;;22.75;12.15;;;3.30;99.90;;;;;;5069230;28;20488;-64
2022/11/22 06:11:07;;;;;;;21.60;11.15;;;3.30;99.90;;;;;;5068952;28;20115;-64
2022/11/22 06:13:38;;;;;;;25.70;11.80;;;3.30;99.90;;;;;;5088000;28;20047;-64
2022/11/22 06:16:05;;;;;;;28.15;10.35;;;3.30;99.90;;;;;;5082159;28;20044;-64
2022/11/22 06:18:32;;;;;;;22.55;11.75;;;3.30;99.90;;;;;;5068269;28;20496;-64
2022/11/22 06:21:02;;;;;;;20.00;11.13;;;3.30;99.90;;;;;;5088495;28;20044;-64
2022/11/22 06:23:29;;;;;;;29.80;13.57;;;3.30;99.90;;;;;;5068149;28;20090;-64
2022/11/22 06:25:56;;;;;;;23.25;12.18;;;3.30;99.90;;;;;;5083744;28;20048;-64
2022/11/22 06:28:22;;;;;;;22.92;11.50;;;3.30;99.90;;;;;;5086509;28;20055;-64
2022/11/22 06:30:48;;;;;;;17.33;11.30;;;3.30;99.90;;;;;;5087864;28;20044;-64
2022/11/22 06:33:14;;;;;;;16.38;10.32;;;3.40;99.90;;;;;;5087400;28;20044;-64
2022/11/22 06:35:40;;;;;;;14.45;9.38;;;3.40;99.90;;;;;;5086689;28;20160;-64
2022/11/22 06:38:06;;;;;;;26.67;13.35;;;3.40;99.90;;;;;;5085148;28;20040;-64
2022/11/22 06:40:31;;;;;;;25.75;11.60;;;3.40;99.90;;;;;;5067603;28;20063;-64
2022/11/22 06:42:57;;;;;;;17.35;10.68;;;3.40;99.90;;;;;;5069814;28;20040;-63
2022/11/22 06:45:23;;;;;;;24.52;12.25;;;3.40;99.90;;;;;;5086066;28;20096;-64
2022/11/22 06:47:49;;;;;;;19.02;11.27;;;3.40;99.90;;;;;;5067965;28;20044;-64
2022/11/22 06:50:15;;;;;;;23.23;9.90;;;3.40;99.90;;;;;;5087104;28;20043;-63
2022/11/22 06:52:41;;;;;;;18.23;10.20;;;3.40;99.90;;;;;;5068785;28;20504;-63
2022/11/22 06:55:07;;;;;;;18.85;11.38;;;3.40;99.90;;;;;;5087600;28;20454;-63
2022/11/22 06:57:32;;;;;;;22.17;11.43;;;3.50;99.90;;;;;;5046317;28;21533;-63
2022/11/22 06:59:59;;;;;;;19.58;11.63;;;3.50;99.90;;;;;;5064514;28;20052;-63
2022/11/22 07:02:25;;;;;;;22.98;11.55;;;3.50;99.90;;;;;;5085507;28;20051;-63
2022/11/22 07:04:51;;;;;;;19.92;11.85;;;3.50;99.90;;;;;;5087924;28;20044;-63
2022/11/22 07:07:17;;;;;;;16.45;9.43;;;3.50;99.90;;;;;;5086223;28;20047;-63
2022/11/22 07:09:43;;;;;;;23.90;11.68;;;3.40;99.90;;;;;;5084861;28;20144;-63
2022/11/22 07:12:09;;;;;;;21.83;12.50;;;3.50;99.90;;;;;;5087767;28;20090;-63
2022/11/22 07:14:36;;;;;;;22.75;13.02;;;3.50;99.90;;;;;;5085941;28;20044;-63
2022/11/22 07:17:01;;;;;;;29.02;12.98;;;3.50;99.90;;;;;;5087492;28;20136;-63
2022/11/22 07:19:27;;;;;;;24.45;13.27;;;3.50;99.90;;;;;;5065509;28;20082;-63
2022/11/22 07:21:54;;;;;;;24.55;11.52;;;3.50;99.90;;;;;;5087131;28;20051;-63
2022/11/22 07:24:19;;;;;;;27.65;12.70;;;3.50;99.90;;;;;;5085839;28;20197;-63
2022/11/22 07:26:45;;;;;;;16.10;9.27;;;3.50;99.90;;;;;;5087465;28;20639;-63
2022/11/22 07:29:11;;;;;;;22.38;12.00;;;3.50;99.90;;;;;;5066852;28;20070;-63
2022/11/22 07:31:36;;;;;;;20.10;11.93;;;3.50;99.90;;;;;;5085382;28;20032;-63
2022/11/22 07:34:03;;;;;;;21.52;13.52;;;3.50;99.90;;;;;;5087441;28;20032;-63
2022/11/22 07:36:29;;;;;;;18.95;10.48;;;3.50;99.90;;;;;;5060535;28;20032;-63
2022/11/22 07:38:55;;;;;;;19.30;11.50;;;3.50;99.90;;;;;;5086666;28;20127;-63
2022/11/22 07:41:21;;;;;;;18.83;11.02;;;3.50;99.90;;;;;;5084142;28;20059;-63
2022/11/22 07:43:47;;;;;;;20.20;11.63;;;3.50;99.90;;;;;;5064245;28;20485;-63
2022/11/22 07:46:30;;;;;;;23.33;12.70;;;3.60;99.90;;;;;;5086071;28;20048;-63
2022/11/22 07:48:56;;;;;;;23.13;12.52;;;3.60;99.90;;;;;;5080090;28;20051;-63
2022/11/22 07:51:22;;;;;;;26.83;10.95;;;3.60;99.90;;;;;;5068710;28;20079;-63
2022/11/22 07:53:48;;;;;;;22.02;11.60;;;3.70;99.90;;;;;;5085575;28;20028;-63
2022/11/22 07:56:14;;;;;;;24.92;11.55;;;3.60;99.90;;;;;;5062692;28;20117;-63
2022/11/22 07:58:41;;;;;;;22.48;11.38;;;3.70;99.90;;;;;;5085254;28;20131;-63
2022/11/22 08:01:12;;;;;;;19.70;11.55;;;3.70;99.90;;;;;;5086697;28;20040;-63
2022/11/22 08:03:38;;;;;;;19.98;11.77;;;3.70;99.90;;;;;;5086159;28;20039;-63
2022/11/22 08:06:07;;;;;;;20.55;11.93;;;3.70;99.90;;;;;;5068386;28;20452;-63
2022/11/22 08:08:34;;;;;;;22.47;12.47;;;3.80;99.90;;;;;;5080744;28;20481;-63
2022/11/22 08:11:00;;;;;;;17.58;10.88;;;3.80;99.90;;;;;;5070850;28;20350;-63
2022/11/22 08:13:28;;;;;;;19.20;12.43;;;3.80;99.90;;;;;;5071941;28;20060;-63
2022/11/22 08:15:54;;;;;;;21.60;11.38;;;3.90;99.90;;;;;;5089676;28;20040;-63
2022/11/22 08:18:21;;;;;;;24.77;12.90;;;3.90;99.90;;;;;;5070873;28;20048;-63
2022/11/22 08:20:47;;;;;;;21.50;11.63;;;4.00;99.90;;;;;;5066334;28;20481;-63
2022/11/22 08:23:12;;;;;;;20.98;10.75;;;4.00;99.90;;;;;;5087886;28;20032;-63
2022/11/22 08:25:38;;;;;;;20.48;10.52;;;4.10;99.90;;;;;;5087603;28;20392;-63
2022/11/22 08:28:04;;;;;;;24.50;12.90;;;4.10;99.90;;;;;;5067034;28;20060;-63
2022/11/22 08:30:30;;;;;;;16.70;10.75;;;4.20;99.90;;;;;;5087977;28;20041;-63
2022/11/22 08:32:56;;;;;;;21.70;10.95;;;4.20;99.90;;;;;;5086009;28;20051;-63
2022/11/22 08:35:22;;;;;;;19.50;8.38;;;4.30;99.90;;;;;;5090498;28;20070;-63
2022/11/22 08:37:48;;;;;;;18.27;10.20;;;4.30;99.90;;;;;;5070439;28;20040;-63
2022/11/22 08:40:14;;;;;;;25.75;10.48;;;4.30;99.90;;;;;;5089555;28;20056;-63
2022/11/22 08:42:39;;;;;;;17.83;10.32;;;4.30;99.90;;;;;;5088225;28;20465;-63
2022/11/22 08:45:06;;;;;;;26.05;11.38;;;4.40;99.90;;;;;;5087145;28;20044;-63
2022/11/22 08:47:32;;;;;;;18.98;11.57;;;4.50;99.90;;;;;;5071108;28;20051;-63
2022/11/22 08:49:58;;;;;;;23.55;10.50;;;4.50;99.90;;;;;;5070110;28;20039;-63
2022/11/22 08:52:23;;;;;;;17.35;11.07;;;4.50;99.90;;;;;;5088762;28;20104;-63
2022/11/22 08:54:50;;;;;;;19.60;11.07;;;4.50;99.90;;;;;;5088387;28;20047;-63
2022/11/22 08:57:15;;;;;;;24.77;11.80;;;4.50;99.90;;;;;;5088651;28;20047;-63
2022/11/22 08:59:41;;;;;;;20.20;10.25;;;4.60;99.90;;;;;;5088597;28;20093;-63
2022/11/22 09:02:08;;;;;;;13.73;8.57;;;4.60;99.90;;;;;;5088890;28;20047;-63
2022/11/22 09:04:34;;;;;;;23.42;11.85;;;4.70;99.90;;;;;;5089041;28;20108;-63
2022/11/22 09:06:59;;;;;;;23.08;11.38;;;4.70;99.90;;;;;;5088222;28;20033;-62
2022/11/22 09:09:26;;;;;;;23.35;12.38;;;4.70;99.90;;;;;;5084993;28;20474;-63
2022/11/22 09:11:52;;;;;;;22.80;9.43;;;4.80;99.90;;;;;;5078673;28;20040;-62
2022/11/22 09:14:18;;;;;;;19.60;9.02;;;4.80;99.90;;;;;;5089285;28;20474;-63
2022/11/22 09:16:44;;;;;;;18.77;9.45;;;4.90;99.90;;;;;;5088019;28;20052;-62
2022/11/22 09:19:09;;;;;;;17.25;10.05;;;5.00;99.90;;;;;;5070784;28;20075;-63
2022/11/22 09:21:35;;;;;;;18.00;9.82;;;5.00;99.90;;;;;;5087524;28;20516;-63
2022/11/22 09:24:01;;;;;;;18.88;10.15;;;5.10;99.90;;;;;;5081208;28;20085;-63
2022/11/22 09:26:28;;;;;;;15.43;10.50;;;5.10;99.90;;;;;;5088911;28;20157;-63
2022/11/22 09:28:55;;;;;;;19.58;10.60;;;5.10;99.90;;;;;;5070024;28;20052;-63
2022/11/22 09:31:22;;;;;;;28.05;9.48;;;5.20;99.90;;;;;;5089068;28;20044;-63
2022/11/22 09:33:48;;;;;;;20.50;8.85;;;5.30;99.90;;;;;;5087332;28;20083;-61
2022/11/22 09:36:20;;;;;;;15.45;7.18;;;5.30;99.90;;;;;;5084584;28;20127;-60
2022/11/22 09:38:47;;;;;;;14.25;6.85;;;5.40;99.90;;;;;;5088762;28;20056;-60
2022/11/22 09:41:16;;;;;;;23.02;7.53;;;5.50;99.90;;;;;;5065916;28;20048;-60
2022/11/22 09:43:53;;;;;;;23.48;6.47;;;5.60;99.90;;;;;;5068273;28;20384;-60
2022/11/22 09:46:30;;;;;;;13.40;7.00;;;5.60;99.90;;;;;;5063409;28;20541;-61
2022/11/22 09:49:15;;;;;;;24.25;5.97;;;5.70;99.90;;;;;;5066060;28;20044;-63
2022/11/22 09:51:51;;;;;;;15.60;5.35;;;5.80;99.90;;;;;;5067898;28;20147;-62
2022/11/22 09:54:22;;;;;;;17.70;5.35;;;5.80;99.90;;;;;;5056261;28;20055;-63
2022/11/22 09:56:52;;;;;;;14.65;4.38;;;5.90;99.90;;;;;;5067651;28;20098;-63
2022/11/22 09:59:28;;;;;;;22.25;5.25;;;5.90;99.90;;;;;;5065773;28;20052;-63
2022/11/22 10:02:00;;;;;;;24.27;5.75;;;6.00;99.90;;;;;;5067587;28;20090;-63
2022/11/22 10:04:49;;;;;;;19.05;3.88;;;6.00;99.90;;;;;;5067208;28;20052;-63
2022/11/22 10:07:23;;;;;;;14.30;3.65;;;6.10;99.90;;;;;;5066326;28;20079;-63
2022/11/22 10:10:03;;;;;;;25.33;4.95;;;6.10;99.90;;;;;;5067291;28;20040;-63
2022/11/22 10:12:38;;;;;;;17.15;4.50;;;6.20;99.90;;;;;;5065594;28;20047;-63
2022/11/22 10:15:28;;;;;;;9.77;2.78;;;6.20;99.90;;;;;;5067900;28;20044;-63
2022/11/22 10:18:03;;;;;;;12.50;3.05;;;6.20;99.90;;;;;;5067280;28;20056;-63
2022/11/22 10:20:31;;;;;;;12.65;2.75;;;6.20;99.90;;;;;;5066825;28;20119;-63
2022/11/22 10:22:58;;;;;;;15.15;2.85;;;6.30;99.90;;;;;;5066138;28;20162;-63
2022/11/22 10:25:36;;;;;;;11.98;2.55;;;6.30;99.90;;;;;;5065710;28;20032;-63
2022/11/22 10:28:14;;;;;;;20.88;3.33;;;6.30;99.90;;;;;;5067444;28;20433;-63
2022/11/22 10:30:51;;;;;;;20.88;3.10;;;6.30;99.90;;;;;;5065676;28;20059;-63
2022/11/22 10:33:34;;;;;;;8.93;2.08;;;6.30;99.90;;;;;;5065065;28;20056;-63
2022/11/22 10:36:26;;;;;;;12.73;2.35;;;6.30;99.90;;;;;;5073623;28;20119;-63
2022/11/22 10:39:07;;;;;;;19.25;2.60;;;6.30;99.90;;;;;;5056152;28;20052;-63
2022/11/22 10:41:41;;;;;;;15.85;3.15;;;6.30;99.90;;;;;;5082600;28;20048;-63
2022/11/22 10:44:37;;;;;;;15.50;3.00;;;6.30;99.90;;;;;;5079548;28;20049;-63
2022/11/22 10:47:14;;;;;;;21.15;3.17;;;6.30;99.90;;;;;;5073484;28;20044;-64
2022/11/22 10:49:59;;;;;;;15.40;2.35;;;6.30;99.90;;;;;;5086870;28;20051;-64
2022/11/22 10:53:03;;;;;;;14.00;1.98;;;6.30;99.90;;;;;;5087533;28;20080;-64
2022/11/22 10:55:49;;;;;;;18.08;2.70;;;6.40;99.90;;;;;;5086599;28;20044;-63
2022/11/22 10:58:20;;;;;;;11.63;2.22;;;6.50;99.90;;;;;;5057763;28;20044;-64
2022/11/22 11:00:59;;;;;;;14.75;2.50;;;6.60;99.90;;;;;;5086185;28;20044;-63
2022/11/22 11:03:35;;;;;;;13.63;2.05;;;6.60;99.90;;;;;;5079038;28;20033;-63
2022/11/22 11:06:10;;;;;;;17.77;1.63;;;6.70;99.90;;;;;;5086471;28;20486;-64
2022/11/22 11:08:43;;;;;;;10.25;2.05;;;6.70;99.90;;;;;;5085675;28;20665;-64
2022/11/22 11:11:11;;;;;;;9.20;1.58;;;6.80;99.90;;;;;;5086895;28;20080;-63
2022/11/22 11:13:43;;;;;;;21.60;2.03;;;6.80;99.90;;;;;;5065950;28;20075;-63
2022/11/22 11:16:17;;;;;;;13.43;1.83;;;6.80;99.90;;;;;;5084779;28;20104;-64
2022/11/22 11:18:46;;;;;;;11.48;1.92;;;6.80;99.90;;;;;;5086792;28;20056;-63
2022/11/22 11:21:13;;;;;;;14.85;1.95;;;6.80;99.90;;;;;;5084835;28;20411;-64
2022/11/22 11:23:40;;;;;;;8.65;1.42;;;6.80;99.90;;;;;;5081461;28;20494;-63
2022/11/22 11:26:18;;;;;;;8.07;1.83;;;6.80;99.90;;;;;;5068274;28;20116;-63
2022/11/22 11:28:44;;;;;;;10.85;1.98;;;6.80;99.90;;;;;;5085729;28;20040;-63
2022/11/22 11:31:17;;;;;;;8.15;1.08;;;6.90;99.90;;;;;;5086167;28;20050;-64
2022/11/22 11:33:45;;;;;;;12.27;1.55;;;6.90;99.90;;;;;;5067056;28;20044;-64
2022/11/22 11:36:13;;;;;;;5.55;1.42;;;6.90;99.90;;;;;;5085441;28;20047;-64
2022/11/22 11:38:41;;;;;;;6.95;1.30;;;7.00;99.90;;;;;;5085374;28;20450;-64
2022/11/22 11:41:20;;;;;;;8.35;1.80;;;7.10;99.90;;;;;;5075561;28;20522;-64
2022/11/22 11:43:47;;;;;;;9.82;2.78;;;7.20;99.90;;;;;;5067471;28;20502;-64
2022/11/22 11:46:18;;;;;;;7.10;1.15;;;7.30;99.90;;;;;;5084278;28;20043;-63
2022/11/22 11:48:44;;;;;;;8.52;1.30;;;7.30;99.90;;;;;;5072315;28;20040;-63
2022/11/22 11:51:18;;;;;;;6.78;1.20;;;7.30;99.90;;;;;;5088378;28;20055;-63
2022/11/22 11:54:13;;;;;;;9.93;1.17;;;7.30;99.90;;;;;;5090398;28;20029;-63
2022/11/22 11:56:45;;;;;;;7.75;0.70;;;7.40;99.90;;;;;;5090204;28;20043;-63
2022/11/22 11:59:39;;;;;;;7.50;1.35;;;7.40;99.90;;;;;;5071712;28;20091;-63
2022/11/22 12:02:26;;;;;;;7.40;1.33;;;7.40;99.90;;;;;;5077720;28;20047;-63
2022/11/22 12:05:13;;;;;;;9.63;1.42;;;7.40;99.90;;;;;;5070553;28;20044;-64
2022/11/22 12:07:44;;;;;;;15.05;1.52;;;7.30;99.90;;;;;;5060486;28;20071;-63
2022/11/22 12:10:27;;;;;;;8.60;1.48;;;7.30;99.90;;;;;;5090044;28;20097;-63
2022/11/22 12:13:26;;;;;;;9.60;1.15;;;7.30;99.90;;;;;;5088048;28;20047;-63
2022/11/22 12:16:23;;;;;;;7.15;1.10;;;7.30;99.90;;;;;;5065462;28;20406;-63
2022/11/22 12:19:18;;;;;;;5.25;0.98;;;7.40;99.90;;;;;;5084251;28;20037;-63
2022/11/22 12:22:00;;;;;;;7.18;1.30;;;7.40;99.90;;;;;;5046936;28;20059;-63
2022/11/22 12:25:00;;;;;;;9.80;1.80;;;7.40;99.90;;;;;;5090042;28;20529;-63
2022/11/22 12:27:25;;;;;;;10.40;1.95;;;7.40;99.90;;;;;;5083425;28;20075;-63
2022/11/22 12:29:53;;;;;;;7.63;1.20;;;7.50;99.90;;;;;;5088011;28;20065;-63
2022/11/22 12:32:26;;;;;;;7.80;1.40;;;7.50;99.90;;;;;;5053174;28;20604;-63
2022/11/22 12:35:19;;;;;;;10.38;1.58;;;7.50;99.90;;;;;;5088161;28;20044;-63
2022/11/22 12:37:52;;;;;;;10.77;2.42;;;7.50;99.90;;;;;;5065549;28;20398;-63
2022/11/22 12:40:28;;;;;;;8.60;2.00;;;7.50;99.90;;;;;;5071621;28;20052;-63
2022/11/22 12:43:10;;;;;;;8.30;1.60;;;7.60;99.90;;;;;;5087150;28;20498;-63
2022/11/22 12:45:48;;;;;;;8.73;1.50;;;7.60;99.90;;;;;;5068822;28;20120;-63
2022/11/22 12:48:33;;;;;;;6.22;1.60;;;7.60;99.90;;;;;;5088115;28;20086;-64
2022/11/22 12:51:17;;;;;;;9.02;1.70;;;7.60;99.90;;;;;;5062073;28;20545;-63
2022/11/22 12:53:46;;;;;;;7.68;1.88;;;7.60;99.90;;;;;;5088634;28;20048;-64
2022/11/22 12:56:38;;;;;;;10.35;1.63;;;7.60;99.90;;;;;;5087188;28;20370;-63
2022/11/22 12:59:09;;;;;;;9.55;1.55;;;7.60;99.90;;;;;;5081709;28;20097;-63
2022/11/22 13:01:41;;;;;;;11.02;1.48;;;7.60;99.90;;;;;;5088582;28;20558;-63
2022/11/22 13:04:09;;;;;;;8.00;1.42;;;7.60;99.90;;;;;;5069054;28;20036;-63
2022/11/22 13:06:51;;;;;;;7.55;1.40;;;7.60;99.90;;;;;;5087772;28;20048;-63
2022/11/22 13:09:30;;;;;;;17.67;1.55;;;7.50;99.90;;;;;;5080647;28;20044;-63